createdAt,value
2022-10-09T00:01:32.745Z,9.40
2022-10-09T00:04:00.528Z,9.40
2022-10-09T00:06:33.258Z,9.30
2022-10-09T00:09:02.087Z,9.30
2022-10-09T00:11:30.399Z,9.30
2022-10-09T00:13:58.186Z,9.20
2022-10-09T00:16:25.591Z,9.20
2022-10-09T00:18:53.036Z,9.10
2022-10-09T00:21:28.263Z,9.10
2022-10-09T00:23:57.096Z,9.10
2022-10-09T00:26:24.533Z,9.10
2022-10-09T00:28:51.744Z,9.00
2022-10-09T00:31:19.404Z,9.00
2022-10-09T00:33:46.249Z,9.00
2022-10-09T00:36:18.524Z,9.00
2022-10-09T00:38:45.327Z,8.90
2022-10-09T00:41:18.956Z,8.80
2022-10-09T00:43:47.624Z,8.80
2022-10-09T00:46:39.550Z,8.80
2022-10-09T00:49:17.433Z,8.70
2022-10-09T00:51:45.934Z,8.70
2022-10-09T00:54:15.739Z,8.60
2022-10-09T00:56:42.945Z,8.70
2022-10-09T00:59:10.573Z,8.60
2022-10-09T01:01:39.050Z,8.60
2022-10-09T01:04:05.797Z,8.70
2022-10-09T01:06:53.988Z,8.70
2022-10-09T01:09:30.597Z,8.70
2022-10-09T01:12:31.626Z,8.70
2022-10-09T01:15:13.408Z,8.70
2022-10-09T01:18:02.838Z,8.70
2022-10-09T01:20:47.946Z,8.70
2022-10-09T01:23:27.205Z,8.70
2022-10-09T01:26:23.064Z,8.70
2022-10-09T01:28:55.145Z,8.70
2022-10-09T01:31:25.236Z,8.70
2022-10-09T01:33:52.237Z,8.70
2022-10-09T01:36:20.231Z,8.70
2022-10-09T01:38:48.150Z,8.70
2022-10-09T01:41:15.182Z,8.70
2022-10-09T01:43:42.042Z,8.70
2022-10-09T01:46:27.464Z,8.80
2022-10-09T01:49:22.265Z,8.80
2022-10-09T01:51:54.119Z,8.90
2022-10-09T01:54:32.391Z,8.90
2022-10-09T01:57:02.218Z,9.00
2022-10-09T01:59:30.675Z,9.00
2022-10-09T02:01:59.282Z,9.10
2022-10-09T02:04:27.115Z,9.10
2022-10-09T02:06:54.960Z,9.10
2022-10-09T02:09:22.382Z,9.00
2022-10-09T02:11:55.556Z,9.00
2022-10-09T02:14:22.556Z,8.90
2022-10-09T02:17:01.500Z,8.80
2022-10-09T02:19:51.316Z,8.90
2022-10-09T02:22:30.416Z,8.90
2022-10-09T02:25:01.547Z,8.80
2022-10-09T02:27:28.839Z,8.80
2022-10-09T02:29:55.833Z,8.80
2022-10-09T02:32:22.873Z,8.80
2022-10-09T02:34:49.581Z,8.80
2022-10-09T02:37:16.290Z,8.80
2022-10-09T02:39:43.788Z,8.80
2022-10-09T02:42:10.900Z,8.90
2022-10-09T02:44:37.630Z,8.80
2022-10-09T02:47:04.369Z,8.80
2022-10-09T02:49:31.072Z,8.60
2022-10-09T02:51:57.760Z,8.60
2022-10-09T02:54:24.509Z,8.50
2022-10-09T02:56:51.197Z,8.50
2022-10-09T02:59:17.884Z,8.50
2022-10-09T03:01:44.709Z,8.50
2022-10-09T03:04:11.520Z,8.50
2022-10-09T03:06:38.209Z,8.50
2022-10-09T03:09:05.027Z,8.60
2022-10-09T03:11:31.808Z,8.50
2022-10-09T03:13:58.562Z,8.50
2022-10-09T03:16:26.548Z,8.50
2022-10-09T03:18:53.975Z,8.40
2022-10-09T03:21:26.107Z,8.40
2022-10-09T03:23:53.631Z,8.50
2022-10-09T03:26:23.134Z,8.50
2022-10-09T03:28:51.412Z,8.50
2022-10-09T03:31:39.776Z,8.50
2022-10-09T03:34:06.978Z,8.50
2022-10-09T03:36:33.630Z,8.60
2022-10-09T03:39:00.326Z,8.60
2022-10-09T03:41:27.057Z,8.60
2022-10-09T03:43:53.820Z,8.50
2022-10-09T03:46:20.596Z,8.60
2022-10-09T03:48:47.377Z,8.60
2022-10-09T03:51:14.106Z,8.70
2022-10-09T03:53:40.759Z,8.60
2022-10-09T03:56:07.565Z,8.60
2022-10-09T03:58:34.307Z,8.50
2022-10-09T04:01:01.027Z,8.50
2022-10-09T04:03:27.769Z,8.50
2022-10-09T04:05:54.541Z,8.50
2022-10-09T04:08:21.241Z,8.50
2022-10-09T04:10:47.992Z,8.50
2022-10-09T04:13:14.713Z,8.50
2022-10-09T04:15:50.858Z,8.50
2022-10-09T04:18:17.536Z,8.50
2022-10-09T04:20:52.090Z,8.50
2022-10-09T04:23:20.297Z,8.50
2022-10-09T04:25:47.021Z,8.50
2022-10-09T04:28:14.085Z,8.40
2022-10-09T04:30:41.098Z,8.40
2022-10-09T04:33:12.597Z,8.40
2022-10-09T04:35:49.832Z,8.40
2022-10-09T04:38:16.572Z,8.40
2022-10-09T04:40:43.359Z,8.30
2022-10-09T04:43:10.354Z,8.30
2022-10-09T04:45:40.827Z,8.20
2022-10-09T04:48:07.587Z,8.20
2022-10-09T04:50:34.339Z,8.20
2022-10-09T04:53:01.033Z,8.10
2022-10-09T04:55:27.730Z,8.10
2022-10-09T04:57:54.418Z,8.10
2022-10-09T05:00:21.104Z,8.10
2022-10-09T05:02:48.054Z,8.10
2022-10-09T05:05:15.013Z,8.10
2022-10-09T05:07:41.737Z,8.10
2022-10-09T05:10:08.809Z,8.20
2022-10-09T05:12:35.480Z,8.20
2022-10-09T05:15:02.164Z,8.20
2022-10-09T05:17:28.918Z,8.20
2022-10-09T05:19:55.712Z,8.20
2022-10-09T05:22:22.384Z,8.20
2022-10-09T05:24:49.085Z,8.20
2022-10-09T05:27:16.109Z,8.20
2022-10-09T05:29:43.202Z,8.20
2022-10-09T05:32:09.899Z,8.20
2022-10-09T05:34:36.635Z,8.10
2022-10-09T05:37:03.512Z,8.10
2022-10-09T05:39:30.290Z,8.10
2022-10-09T05:41:57.295Z,8.00
2022-10-09T05:44:24.313Z,8.00
2022-10-09T05:46:51.072Z,8.00
2022-10-09T05:49:17.781Z,8.10
2022-10-09T05:51:44.544Z,8.00
2022-10-09T05:54:16.434Z,8.10
2022-10-09T05:56:44.338Z,8.10
2022-10-09T05:59:19.436Z,8.10
2022-10-09T06:01:51.670Z,8.10
2022-10-09T06:04:23.507Z,8.20
2022-10-09T06:06:50.672Z,8.10
2022-10-09T06:09:19.824Z,8.10
2022-10-09T06:11:46.481Z,8.10
2022-10-09T06:14:13.843Z,8.10
2022-10-09T06:16:45.364Z,8.10
2022-10-09T06:19:14.631Z,8.20
2022-10-09T06:21:41.522Z,8.40
2022-10-09T06:24:08.583Z,8.50
2022-10-09T06:26:35.564Z,8.50
2022-10-09T06:29:03.208Z,8.40
2022-10-09T06:31:32.014Z,8.50
2022-10-09T06:34:00.623Z,8.60
2022-10-09T06:36:33.366Z,8.70
2022-10-09T06:39:01.901Z,8.80
2022-10-09T06:41:29.669Z,8.80
2022-10-09T06:43:59.008Z,8.90
2022-10-09T06:46:29.134Z,8.80
2022-10-09T06:48:56.015Z,8.70
2022-10-09T06:51:23.839Z,8.90
2022-10-09T06:53:53.078Z,8.80
2022-10-09T06:56:21.727Z,8.90
2022-10-09T06:58:49.188Z,9.00
2022-10-09T07:01:21.975Z,9.10
2022-10-09T07:03:54.305Z,9.10
2022-10-09T07:06:23.635Z,9.10
2022-10-09T07:08:53.391Z,9.20
2022-10-09T07:11:23.115Z,9.30
2022-10-09T07:13:52.953Z,9.40
2022-10-09T07:16:22.710Z,9.40
2022-10-09T07:18:49.683Z,9.50
2022-10-09T07:21:16.736Z,9.60
2022-10-09T07:23:43.936Z,9.60
2022-10-09T07:26:19.325Z,9.70
2022-10-09T07:28:47.265Z,9.70
2022-10-09T07:31:14.643Z,9.70
2022-10-09T07:33:44.192Z,9.80
2022-10-09T07:36:11.447Z,9.90
2022-10-09T07:38:38.203Z,9.90
2022-10-09T07:41:08.194Z,10.00
2022-10-09T07:43:39.608Z,10.00
2022-10-09T07:46:10.798Z,10.20
2022-10-09T07:48:38.121Z,10.20
2022-10-09T07:51:34.450Z,10.30
2022-10-09T07:54:02.225Z,10.30
2022-10-09T07:56:30.104Z,10.30
2022-10-09T07:59:02.041Z,10.30
2022-10-09T08:01:30.592Z,10.30
2022-10-09T08:03:58.055Z,10.30
2022-10-09T08:06:25.622Z,10.40
2022-10-09T08:08:54.081Z,10.50
2022-10-09T08:11:22.181Z,10.60
2022-10-09T08:13:49.941Z,10.70
2022-10-09T08:16:18.437Z,10.70
2022-10-09T08:18:45.573Z,10.80
2022-10-09T08:21:17.496Z,10.80
2022-10-09T08:23:44.480Z,10.80
2022-10-09T08:26:19.888Z,11.00
2022-10-09T08:29:15.716Z,11.10
2022-10-09T08:31:42.631Z,11.10
2022-10-09T08:34:10.517Z,11.10
2022-10-09T08:36:37.199Z,11.00
2022-10-09T08:39:04.184Z,11.00
2022-10-09T08:41:43.136Z,11.00
2022-10-09T08:44:28.060Z,11.00
2022-10-09T08:47:01.804Z,11.00
2022-10-09T08:49:39.609Z,11.20
2022-10-09T08:52:25.039Z,11.30
2022-10-09T08:54:54.550Z,11.50
2022-10-09T08:57:22.986Z,11.50
2022-10-09T08:59:49.680Z,11.60
2022-10-09T09:02:25.526Z,11.70
2022-10-09T09:05:16.269Z,11.80
2022-10-09T09:08:09.543Z,11.90
2022-10-09T09:10:54.288Z,11.90
2022-10-09T09:13:39.096Z,12.00
2022-10-09T09:16:37.036Z,12.10
2022-10-09T09:19:35.170Z,12.20
2022-10-09T09:22:02.266Z,12.30
2022-10-09T09:24:40.303Z,12.50
2022-10-09T09:27:19.282Z,12.50
2022-10-09T09:30:01.523Z,12.60
2022-10-09T09:32:30.411Z,12.60
2022-10-09T09:35:12.731Z,12.70
2022-10-09T09:37:39.712Z,13.10
2022-10-09T09:43:04.939Z,14.30
2022-10-09T09:45:31.955Z,14.90
2022-10-09T09:48:05.937Z,15.40
2022-10-09T09:50:56.459Z,15.80
2022-10-09T09:53:35.841Z,16.00
2022-10-09T09:56:03.383Z,16.40
2022-10-09T09:58:55.177Z,16.80
2022-10-09T10:01:30.111Z,17.20
2022-10-09T10:03:59.694Z,17.60
2022-10-09T10:06:34.206Z,17.80
2022-10-09T10:09:03.663Z,18.00
2022-10-09T10:11:32.461Z,17.70
2022-10-09T10:14:06.784Z,17.40
2022-10-09T10:16:37.459Z,17.10
2022-10-09T10:19:06.064Z,16.80
2022-10-09T10:21:48.757Z,16.70
2022-10-09T10:24:22.758Z,16.50
2022-10-09T10:26:57.815Z,16.50
2022-10-09T10:29:43.961Z,16.50
2022-10-09T10:32:23.118Z,16.50
2022-10-09T10:35:04.738Z,16.50
2022-10-09T10:37:52.540Z,16.50
2022-10-09T10:40:37.963Z,16.50
2022-10-09T10:43:10.465Z,16.50
2022-10-09T10:45:43.101Z,16.40
2022-10-09T10:48:28.822Z,16.30
2022-10-09T10:51:19.079Z,16.30
2022-10-09T10:53:57.787Z,16.30
2022-10-09T10:56:53.794Z,16.40
2022-10-09T10:59:23.627Z,16.40
2022-10-09T11:02:16.393Z,16.40
2022-10-09T11:04:58.229Z,16.40
2022-10-09T11:07:43.216Z,16.60
2022-10-09T11:10:31.565Z,16.60
2022-10-09T11:13:25.784Z,16.60
2022-10-09T11:16:26.725Z,16.70
2022-10-09T11:19:15.388Z,16.60
2022-10-09T11:21:49.287Z,16.70
2022-10-09T11:24:26.880Z,16.80
2022-10-09T11:27:00.865Z,17.00
2022-10-09T11:29:51.990Z,17.00
2022-10-09T11:32:24.530Z,17.20
2022-10-09T11:35:01.327Z,17.30
2022-10-09T11:37:35.061Z,17.40
2022-10-09T11:40:18.083Z,17.40
2022-10-09T11:42:54.117Z,17.40
2022-10-09T11:45:32.001Z,17.50
2022-10-09T11:48:01.710Z,17.60
2022-10-09T11:50:54.286Z,17.70
2022-10-09T11:53:24.388Z,17.80
2022-10-09T11:56:02.850Z,17.80
2022-10-09T11:58:29.763Z,17.80
2022-10-09T12:01:08.873Z,17.80
2022-10-09T12:03:38.239Z,17.80
2022-10-09T12:06:17.288Z,17.80
2022-10-09T12:09:17.465Z,17.90
2022-10-09T12:12:02.376Z,18.00
2022-10-09T12:14:30.518Z,17.80
2022-10-09T12:16:58.418Z,17.80
2022-10-09T12:19:29.656Z,17.70
2022-10-09T12:22:11.387Z,17.70
2022-10-09T12:24:41.606Z,17.70
2022-10-09T12:27:17.253Z,17.70
2022-10-09T12:29:47.494Z,17.60
2022-10-09T12:32:26.030Z,17.70
2022-10-09T12:34:53.955Z,17.70
2022-10-09T12:37:22.672Z,17.70
2022-10-09T12:39:50.292Z,17.70
2022-10-09T12:42:26.794Z,17.70
2022-10-09T12:44:55.863Z,17.70
2022-10-09T12:47:29.906Z,17.60
2022-10-09T12:50:24.384Z,17.50
2022-10-09T12:52:54.718Z,17.50
2022-10-09T12:55:49.768Z,17.60
2022-10-09T12:58:19.504Z,17.60
2022-10-09T13:00:49.045Z,17.50
2022-10-09T13:03:32.460Z,17.50
2022-10-09T13:05:59.906Z,17.40
2022-10-09T13:08:30.793Z,17.40
2022-10-09T13:11:12.810Z,17.40
2022-10-09T13:13:40.133Z,17.30
2022-10-09T13:16:10.513Z,17.30
2022-10-09T13:18:38.048Z,17.30
2022-10-09T13:21:17.625Z,17.30
2022-10-09T13:23:44.368Z,17.30
2022-10-09T13:26:26.295Z,17.20
2022-10-09T13:28:54.150Z,17.20
2022-10-09T13:31:22.345Z,17.10
2022-10-09T13:33:49.510Z,17.10
2022-10-09T13:36:18.473Z,17.10
2022-10-09T13:38:46.473Z,17.00
2022-10-09T13:41:21.286Z,17.00
2022-10-09T13:43:48.962Z,17.00
2022-10-09T13:46:16.437Z,17.00
2022-10-09T13:48:43.271Z,17.00
2022-10-09T13:51:11.235Z,16.90
2022-10-09T13:53:38.368Z,16.80
2022-10-09T13:56:05.942Z,16.80
2022-10-09T13:58:32.614Z,16.80
2022-10-09T14:00:59.569Z,16.70
2022-10-09T14:03:26.467Z,16.70
2022-10-09T14:06:01.496Z,16.70
2022-10-09T14:08:28.425Z,16.70
2022-10-09T14:10:55.502Z,16.60
2022-10-09T14:13:22.247Z,16.60
2022-10-09T14:15:49.102Z,16.60
2022-10-09T14:18:15.786Z,16.60
2022-10-09T14:20:42.491Z,16.60
2022-10-09T14:23:09.338Z,16.60
2022-10-09T14:25:36.166Z,16.50
2022-10-09T14:28:03.513Z,16.50
2022-10-09T14:30:30.346Z,16.50
2022-10-09T14:32:57.428Z,16.40
2022-10-09T14:35:24.938Z,16.40
2022-10-09T14:37:51.757Z,16.30
2022-10-09T14:40:18.469Z,16.30
2022-10-09T14:42:45.301Z,16.30
2022-10-09T14:45:12.097Z,16.30
2022-10-09T14:47:38.822Z,16.20
2022-10-09T14:50:05.987Z,16.20
2022-10-09T14:52:32.736Z,16.20
2022-10-09T14:54:59.481Z,16.10
2022-10-09T14:57:26.214Z,16.10
2022-10-09T14:59:53.107Z,16.10
2022-10-09T15:02:19.802Z,16.10
2022-10-09T15:04:46.573Z,16.00
2022-10-09T15:07:13.280Z,16.00
2022-10-09T15:09:39.936Z,16.00
2022-10-09T15:12:06.642Z,16.00
2022-10-09T15:14:33.539Z,16.00
2022-10-09T15:17:00.250Z,16.00
2022-10-09T15:19:26.932Z,15.90
2022-10-09T15:21:53.694Z,15.90
2022-10-09T15:24:20.369Z,15.90
2022-10-09T15:26:47.051Z,15.80
2022-10-09T15:29:13.769Z,15.80
2022-10-09T15:31:41.901Z,15.80
2022-10-09T15:34:15.562Z,15.80
2022-10-09T15:36:44.352Z,15.80
2022-10-09T15:39:11.349Z,15.80
2022-10-09T15:41:40.580Z,15.80
2022-10-09T15:44:17.526Z,15.80
2022-10-09T15:46:45.494Z,15.80
2022-10-09T15:49:12.318Z,15.70
2022-10-09T15:51:39.349Z,15.60
2022-10-09T15:54:06.810Z,15.60
2022-10-09T15:56:39.491Z,15.60
2022-10-09T15:59:06.335Z,15.60
2022-10-09T16:01:33.173Z,15.50
2022-10-09T16:03:59.886Z,15.40
2022-10-09T16:06:26.616Z,15.40
2022-10-09T16:08:57.588Z,15.40
2022-10-09T16:11:26.447Z,15.30
2022-10-09T16:13:55.710Z,15.30
2022-10-09T16:16:25.636Z,15.30
2022-10-09T16:18:53.434Z,15.30
2022-10-09T16:21:25.869Z,15.20
2022-10-09T16:23:58.126Z,15.20
2022-10-09T16:26:25.862Z,15.10
2022-10-09T16:28:52.707Z,15.10
2022-10-09T16:31:25.055Z,15.00
2022-10-09T16:33:52.213Z,15.00
2022-10-09T16:36:19.164Z,14.90
2022-10-09T16:38:46.015Z,14.90
2022-10-09T16:41:17.703Z,14.80
2022-10-09T16:43:46.727Z,14.80
2022-10-09T16:46:16.184Z,14.80
2022-10-09T16:48:42.886Z,14.70
2022-10-09T16:51:12.132Z,14.60
2022-10-09T16:53:39.336Z,14.60
2022-10-09T16:56:15.405Z,14.60
2022-10-09T16:58:42.940Z,14.60
2022-10-09T17:01:11.064Z,14.50
2022-10-09T17:03:40.535Z,14.40
2022-10-09T17:06:19.583Z,14.40
2022-10-09T17:08:47.849Z,14.30
2022-10-09T17:11:16.662Z,14.30
2022-10-09T17:13:44.040Z,14.20
2022-10-09T17:16:18.412Z,14.10
2022-10-09T17:18:46.894Z,14.00
2022-10-09T17:21:15.492Z,13.90
2022-10-09T17:23:42.521Z,13.80
2022-10-09T17:26:14.780Z,13.80
2022-10-09T17:28:42.207Z,13.70
2022-10-09T17:31:12.246Z,13.60
2022-10-09T17:33:41.379Z,13.50
2022-10-09T17:36:09.072Z,13.50
2022-10-09T17:38:36.267Z,13.40
2022-10-09T17:41:07.670Z,13.40
2022-10-09T17:43:35.216Z,13.30
2022-10-09T17:46:02.296Z,13.20
2022-10-09T17:48:29.673Z,13.20
2022-10-09T17:50:58.536Z,13.10
2022-10-09T17:53:25.692Z,13.10
2022-10-09T17:55:54.807Z,13.10
2022-10-09T17:58:23.011Z,13.10
2022-10-09T18:00:50.936Z,13.00
2022-10-09T18:03:18.338Z,13.00
2022-10-09T18:05:47.561Z,13.00
2022-10-09T18:08:16.222Z,12.90
2022-10-09T18:10:43.352Z,12.80
2022-10-09T18:13:11.228Z,12.80
2022-10-09T18:15:43.774Z,12.70
2022-10-09T18:18:11.320Z,12.70
2022-10-09T18:20:39.488Z,12.60
2022-10-09T18:23:07.786Z,12.60
2022-10-09T18:25:35.670Z,12.50
2022-10-09T18:28:02.533Z,12.50
2022-10-09T18:30:29.374Z,12.40
2022-10-09T18:32:56.316Z,12.40
2022-10-09T18:35:23.133Z,12.40
2022-10-09T18:37:49.981Z,12.30
2022-10-09T18:40:16.733Z,12.30
2022-10-09T18:42:43.480Z,12.20
2022-10-09T18:45:13.588Z,12.20
2022-10-09T18:47:41.344Z,12.20
2022-10-09T18:50:10.693Z,12.20
2022-10-09T18:52:38.189Z,12.20
2022-10-09T18:55:07.486Z,12.10
2022-10-09T18:57:35.974Z,12.10
2022-10-09T19:00:03.843Z,12.00
2022-10-09T19:02:30.646Z,12.00
2022-10-09T19:04:57.872Z,12.00
2022-10-09T19:07:25.261Z,11.90
2022-10-09T19:09:57.003Z,11.90
2022-10-09T19:12:25.032Z,11.90
2022-10-09T19:14:52.584Z,11.90
2022-10-09T19:17:19.328Z,11.80
2022-10-09T19:19:46.131Z,11.80
2022-10-09T19:22:16.545Z,11.80
2022-10-09T19:24:45.120Z,11.70
2022-10-09T19:27:11.959Z,11.70
2022-10-09T19:29:38.821Z,11.70
2022-10-09T19:32:05.560Z,11.70
2022-10-09T19:34:32.453Z,11.70
2022-10-09T19:36:59.504Z,11.70
2022-10-09T19:39:26.440Z,11.70
2022-10-09T19:41:53.566Z,11.60
2022-10-09T19:44:21.029Z,11.60
2022-10-09T19:46:48.384Z,11.60
2022-10-09T19:49:15.610Z,11.50
2022-10-09T19:51:42.915Z,11.50
2022-10-09T19:54:10.136Z,11.50
2022-10-09T19:56:38.116Z,11.50
2022-10-09T19:59:07.256Z,11.40
2022-10-09T20:01:35.444Z,11.50
2022-10-09T20:04:05.465Z,11.50
2022-10-09T20:06:32.522Z,11.50
2022-10-09T20:08:59.548Z,11.40
2022-10-09T20:11:26.904Z,11.40
2022-10-09T20:13:56.146Z,11.40
2022-10-09T20:16:24.256Z,11.30
2022-10-09T20:18:51.295Z,11.30
2022-10-09T20:21:18.479Z,11.30
2022-10-09T20:23:45.591Z,11.30
2022-10-09T20:26:14.931Z,11.20
2022-10-09T20:28:43.210Z,11.20
2022-10-09T20:31:28.489Z,11.10
2022-10-09T20:33:55.810Z,11.10
2022-10-09T20:36:32.535Z,11.00
2022-10-09T20:39:01.123Z,11.00
2022-10-09T20:41:29.130Z,11.00
2022-10-09T20:43:57.949Z,11.00
2022-10-09T20:46:25.776Z,11.00
2022-10-09T20:48:53.003Z,10.90
2022-10-09T20:51:21.202Z,10.90
2022-10-09T20:54:01.033Z,10.90
2022-10-09T20:56:30.470Z,10.90
2022-10-09T20:58:57.936Z,10.90
2022-10-09T21:01:25.762Z,10.90
2022-10-09T21:03:52.503Z,10.90
2022-10-09T21:06:21.183Z,10.80
2022-10-09T21:08:48.589Z,10.80
2022-10-09T21:11:17.174Z,10.90
2022-10-09T21:13:45.389Z,10.80
2022-10-09T21:16:15.098Z,10.80
2022-10-09T21:18:41.915Z,10.90
2022-10-09T21:21:17.108Z,10.90
2022-10-09T21:23:44.927Z,11.00
2022-10-09T21:26:13.844Z,11.00
2022-10-09T21:28:41.023Z,11.00
2022-10-09T21:31:15.110Z,11.00
2022-10-09T21:33:41.796Z,11.00
2022-10-09T21:36:11.171Z,11.00
2022-10-09T21:38:38.426Z,11.00
2022-10-09T21:41:05.475Z,11.10
2022-10-09T21:43:32.141Z,11.10
2022-10-09T21:45:59.031Z,11.10
2022-10-09T21:48:25.776Z,11.20
2022-10-09T21:50:52.440Z,11.20
2022-10-09T21:53:19.078Z,11.20
2022-10-09T21:55:45.856Z,11.20
2022-10-09T21:58:12.530Z,11.20
2022-10-09T22:00:39.293Z,11.30
2022-10-09T22:03:06.072Z,11.20
2022-10-09T22:05:32.750Z,11.30
2022-10-09T22:07:59.587Z,11.30
2022-10-09T22:10:26.342Z,11.20
2022-10-09T22:12:53.280Z,11.30
2022-10-09T22:15:20.211Z,11.20
2022-10-09T22:17:46.922Z,11.20
2022-10-09T22:20:13.783Z,11.20
2022-10-09T22:22:40.581Z,11.20
2022-10-09T22:25:07.892Z,11.20
2022-10-09T22:27:34.664Z,11.20
2022-10-09T22:30:01.343Z,11.20
2022-10-09T22:32:28.026Z,11.10
2022-10-09T22:34:54.722Z,11.10
2022-10-09T22:37:21.389Z,11.10
2022-10-09T22:39:49.290Z,11.10
2022-10-09T22:42:16.173Z,11.20
2022-10-09T22:44:42.906Z,11.20
2022-10-09T22:47:09.719Z,11.20
2022-10-09T22:49:36.405Z,11.10
2022-10-09T22:52:03.203Z,11.10
2022-10-09T22:54:30.086Z,11.20
2022-10-09T22:56:56.955Z,11.10
2022-10-09T22:59:23.642Z,11.20
2022-10-09T23:01:54.385Z,11.20
2022-10-09T23:04:22.508Z,11.20
2022-10-09T23:06:51.357Z,11.10
2022-10-09T23:09:19.295Z,11.20
2022-10-09T23:11:46.099Z,11.10
2022-10-09T23:14:13.337Z,11.10
2022-10-09T23:16:40.723Z,11.10
2022-10-09T23:19:08.349Z,11.00
2022-10-09T23:21:37.364Z,11.10
2022-10-09T23:24:04.600Z,11.00
2022-10-09T23:26:32.504Z,11.00
2022-10-09T23:29:02.186Z,11.00
2022-10-09T23:31:30.057Z,11.00
2022-10-09T23:33:57.419Z,11.00
2022-10-09T23:36:26.827Z,11.00
2022-10-09T23:38:53.861Z,11.00
2022-10-09T23:41:26.559Z,11.00
2022-10-09T23:43:53.516Z,11.00
2022-10-09T23:46:25.819Z,10.90
2022-10-09T23:48:53.629Z,10.90
2022-10-09T23:51:21.896Z,10.90
2022-10-09T23:53:48.837Z,10.80
2022-10-09T23:56:27.959Z,10.90
2022-10-09T23:58:56.315Z,10.80
